Time;durP1;ratioP1;P1;durP2;ratioP2;P2;SDS_P1;SDS_P2;PMS_P1;PMS_P2;Temp;Humidity;BMP_temperature;BMP_pressure;BME280_temperature;BME280_humidity;BME280_pressure;Samples;Min_cycle;Max_cycle;Signal;HPM_P1;HPM_P2
2022/02/12 00:01:06;;;;;;;;;;;;;;;17.13;42.07;101361.25;4979661;28;1326;-58
2022/02/12 00:03:33;;;;;;;;;;;;;;;16.81;41.14;101366.72;4979284;28;921;-58
2022/02/12 00:05:58;;;;;;;;;;;;;;;16.78;40.31;101370.81;4979460;28;831;-59
2022/02/12 00:08:23;;;;;;;;;;;;;;;16.32;40.44;101373.91;4985718;28;784;-58
2022/02/12 00:10:49;;;;;;;;;;;;;;;16.65;42.93;101371.22;4979146;28;1355;-57
2022/02/12 00:13:14;;;;;;;;;;;;;;;18.27;41.09;101376.47;4991823;28;1907;-57
2022/02/12 00:15:40;;;;;;;;;;;;;;;18.59;39.82;101375.44;4979019;28;1017;-58
2022/02/12 00:18:06;;;;;;;;;;;;;;;17.70;41.64;101381.69;4989482;28;1328;-58
2022/02/12 00:20:31;;;;;;;;;;;;;;;17.32;41.80;101375.41;4986933;28;814;-58
2022/02/12 00:22:57;;;;;;;;;;;;;;;16.95;40.90;101384.44;4979176;28;790;-57
2022/02/12 00:25:22;;;;;;;;;;;;;;;16.93;40.77;101390.22;4978842;28;718;-57
2022/02/12 00:27:48;;;;;;;;;;;;;;;16.87;42.47;101384.88;4980024;28;838;-57
2022/02/12 00:30:13;;;;;;;;;;;;;;;16.75;43.01;101379.56;4978924;28;1496;-57
2022/02/12 00:32:39;;;;;;;;;;;;;;;16.70;42.78;101385.00;4984440;28;1127;-57
2022/02/12 00:35:04;;;;;;;;;;;;;;;16.46;41.90;101376.25;4979063;28;1902;-57
2022/02/12 00:37:30;;;;;;;;;;;;;;;16.32;42.16;101381.31;4978510;28;890;-57
2022/02/12 00:39:58;;;;;;;;;;;;;;;16.65;43.67;101385.78;4978662;28;805;-57
2022/02/12 00:42:24;;;;;;;;;;;;;;;16.82;43.69;101377.44;4978249;28;854;-57
2022/02/12 00:44:50;;;;;;;;;;;;;;;17.14;42.92;101373.06;4981843;28;783;-57
2022/02/12 00:47:15;;;;;;;;;;;;;;;17.01;43.23;101375.19;4978608;28;1005;-57
2022/02/12 00:49:40;;;;;;;;;;;;;;;16.87;43.18;101371.16;4978534;28;839;-57
2022/02/12 00:52:06;;;;;;;;;;;;;;;16.87;42.90;101363.75;4978874;28;823;-57
2022/02/12 00:54:32;;;;;;;;;;;;;;;16.39;42.60;101369.03;4978632;28;2000;-57
2022/02/12 00:56:58;;;;;;;;;;;;;;;16.72;43.82;101367.19;4976894;28;874;-57
2022/02/12 00:59:24;;;;;;;;;;;;;;;16.84;43.56;101363.44;4983413;28;866;-57
2022/02/12 01:01:49;;;;;;;;;;;;;;;16.75;43.38;101369.41;4978657;28;747;-57
2022/02/12 01:04:15;;;;;;;;;;;;;;;16.70;43.35;101374.03;4978145;28;739;-57
2022/02/12 01:06:41;;;;;;;;;;;;;;;16.38;42.41;101367.41;4978149;28;822;-57
2022/02/12 01:09:06;;;;;;;;;;;;;;;16.36;43.07;101375.06;4978185;28;878;-58
2022/02/12 01:11:32;;;;;;;;;;;;;;;16.91;43.61;101367.69;4981671;28;767;-57
2022/02/12 01:13:57;;;;;;;;;;;;;;;17.41;42.23;101365.56;4982001;28;1910;-57
2022/02/12 01:16:23;;;;;;;;;;;;;;;17.47;41.95;101371.94;4978331;28;869;-57
2022/02/12 01:18:48;;;;;;;;;;;;;;;17.12;42.61;101372.50;4978138;28;886;-57
2022/02/12 01:21:14;;;;;;;;;;;;;;;17.06;42.51;101374.38;4977879;28;754;-58
2022/02/12 01:23:39;;;;;;;;;;;;;;;16.78;41.95;101370.81;4978229;28;787;-57
2022/02/12 01:26:05;;;;;;;;;;;;;;;16.75;42.31;101376.84;4977895;28;859;-57
2022/02/12 01:28:31;;;;;;;;;;;;;;;17.06;42.94;101377.13;4979369;28;913;-57
2022/02/12 01:30:56;;;;;;;;;;;;;;;17.37;42.18;101378.19;4978101;28;840;-57
2022/02/12 01:33:22;;;;;;;;;;;;;;;17.32;42.10;101380.91;4977721;28;1887;-57
2022/02/12 01:35:47;;;;;;;;;;;;;;;17.07;42.42;101382.38;4981284;28;795;-57
2022/02/12 01:38:13;;;;;;;;;;;;;;;16.85;42.84;101393.41;4977893;28;890;-57
2022/02/12 01:40:38;;;;;;;;;;;;;;;16.82;42.42;101387.63;4977640;28;873;-57
2022/02/12 01:43:07;;;;;;;;;;;;;;;16.37;41.50;101386.88;4977986;28;751;-57
2022/02/12 01:45:32;;;;;;;;;;;;;;;16.43;43.06;101397.63;4977828;28;850;-57
2022/02/12 01:47:58;;;;;;;;;;;;;;;16.77;43.58;101400.22;4976406;28;958;-57
2022/02/12 01:50:23;;;;;;;;;;;;;;;17.01;42.82;101405.41;4996631;28;885;-57
2022/02/12 01:52:48;;;;;;;;;;;;;;;16.88;43.10;101409.38;4996485;28;976;-57
2022/02/12 01:55:14;;;;;;;;;;;;;;;16.68;42.91;101404.50;4995865;28;1981;-57
2022/02/12 01:57:39;;;;;;;;;;;;;;;16.63;42.83;101404.44;4996104;28;736;-57
2022/02/12 02:00:05;;;;;;;;;;;;;;;16.48;42.20;101409.75;4978635;28;918;-57
2022/02/12 02:02:38;;;;;;;;;;;;;;;16.35;43.50;101409.06;4980574;28;720;-57
2022/02/12 02:05:10;;;;;;;;;;;;;;;17.16;42.53;101401.13;4977835;28;751;-58
2022/02/12 02:07:36;;;;;;;;;;;;;;;17.72;41.30;101408.94;4977718;28;862;-57
2022/02/12 02:10:03;;;;;;;;;;;;;;;17.51;41.57;101410.72;4977320;28;850;-57
2022/02/12 02:12:28;;;;;;;;;;;;;;;17.16;42.31;101401.13;4979588;28;811;-57
2022/02/12 02:14:54;;;;;;;;;;;;;;;16.87;42.64;101404.13;4978641;28;1993;-57
2022/02/12 02:17:19;;;;;;;;;;;;;;;16.83;42.15;101411.22;4977183;28;842;-57
2022/02/12 02:19:45;;;;;;;;;;;;;;;16.56;41.66;101404.66;4977251;28;835;-57
2022/02/12 02:22:10;;;;;;;;;;;;;;;16.33;42.28;101408.50;4993659;28;806;-56
2022/02/12 02:24:36;;;;;;;;;;;;;;;16.56;43.82;101420.28;4994361;28;921;-57
2022/02/12 02:27:28;;;;;;;;;;;;;;;16.84;43.34;101418.38;4992829;28;846;-57
2022/02/12 02:29:54;;;;;;;;;;;;;;;17.00;42.88;101422.97;4973563;28;1740;-57
2022/02/12 02:32:19;;;;;;;;;;;;;;;16.76;42.84;101428.75;4976819;28;1199;-57
2022/02/12 02:34:49;;;;;;;;;;;;;;;16.56;43.08;101428.53;4976948;28;1969;-57
2022/02/12 02:37:14;;;;;;;;;;;;;;;16.57;42.28;101427.44;4976185;28;826;-57
2022/02/12 02:39:41;;;;;;;;;;;;;;;16.36;42.61;101429.13;4977653;28;767;-57
2022/02/12 02:42:06;;;;;;;;;;;;;;;17.06;42.33;101435.66;4979524;28;818;-57
2022/02/12 02:44:32;;;;;;;;;;;;;;;16.66;43.14;101431.41;4981361;28;966;-57
2022/02/12 02:46:57;;;;;;;;;;;;;;;16.56;42.94;101431.28;4980835;28;851;-57
2022/02/12 02:49:22;;;;;;;;;;;;;;;16.44;42.51;101431.41;4981098;28;874;-57
2022/02/12 02:57:16;;;;;;;;;;;;;;;16.91;42.59;101441.00;4994859;28;1437;-57
2022/02/12 02:59:41;;;;;;;;;;;;;;;16.59;42.96;101438.97;4985867;28;913;-57
2022/02/12 03:02:07;;;;;;;;;;;;;;;16.59;42.80;101438.97;4980594;28;771;-57
2022/02/12 03:04:32;;;;;;;;;;;;;;;16.45;42.16;101443.22;4981492;28;783;-57
2022/02/12 03:06:58;;;;;;;;;;;;;;;16.74;43.36;101452.06;4981003;28;794;-57
2022/02/12 03:09:23;;;;;;;;;;;;;;;17.11;42.18;101445.88;4980375;28;866;-58
2022/02/12 03:11:49;;;;;;;;;;;;;;;16.85;42.70;101453.00;4980436;28;907;-58
2022/02/12 03:14:14;;;;;;;;;;;;;;;16.67;42.71;101462.44;4984387;28;1914;-57
2022/02/12 03:16:40;;;;;;;;;;;;;;;16.67;42.20;101460.50;4980360;28;925;-58
2022/02/12 03:19:05;;;;;;;;;;;;;;;16.53;42.40;101462.00;4984505;28;931;-57
2022/02/12 03:21:31;;;;;;;;;;;;;;;16.31;42.63;101462.81;4980479;28;824;-57
2022/02/12 03:23:56;;;;;;;;;;;;;;;16.55;42.55;101470.78;4980297;28;826;-57
2022/02/12 03:26:23;;;;;;;;;;;;;;;16.54;42.79;101458.16;4980180;28;826;-57
2022/02/12 03:28:48;;;;;;;;;;;;;;;16.68;43.00;101464.91;4983442;28;830;-58
2022/02/12 03:31:14;;;;;;;;;;;;;;;16.99;42.77;101470.75;4985865;28;1111;-58
2022/02/12 03:33:40;;;;;;;;;;;;;;;17.18;41.86;101478.63;4980034;28;1907;-58
2022/02/12 03:36:05;;;;;;;;;;;;;;;17.11;42.12;101473.38;4979988;28;845;-57
2022/02/12 03:38:31;;;;;;;;;;;;;;;16.95;42.15;101469.63;4979826;28;767;-57
2022/02/12 03:40:58;;;;;;;;;;;;;;;16.77;42.79;101474.38;4979684;28;814;-58
2022/02/12 03:43:24;;;;;;;;;;;;;;;16.70;42.66;101472.88;4987635;28;862;-57
2022/02/12 03:45:49;;;;;;;;;;;;;;;16.68;42.17;101470.41;4978428;28;858;-57
2022/02/12 03:48:15;;;;;;;;;;;;;;;16.46;43.49;101473.16;4979682;28;669;-57
2022/02/12 03:50:40;;;;;;;;;;;;;;;16.83;42.62;101472.50;4980122;28;792;-57
2022/02/12 03:53:06;;;;;;;;;;;;;;;16.52;43.05;101476.78;4978978;28;835;-57
2022/02/12 03:55:36;;;;;;;;;;;;;;;16.56;42.70;101473.31;4981897;28;1910;-57
2022/02/12 03:58:02;;;;;;;;;;;;;;;16.46;42.79;101477.81;4991264;28;890;-57
2022/02/12 04:00:27;;;;;;;;;;;;;;;16.22;42.14;101473.41;4998195;28;1033;-57
2022/02/12 04:02:53;;;;;;;;;;;;;;;16.34;44.04;101481.53;4998461;28;859;-57
2022/02/12 04:05:18;;;;;;;;;;;;;;;16.53;43.50;101486.69;4997975;28;802;-57
2022/02/12 04:07:44;;;;;;;;;;;;;;;16.30;43.55;101483.13;4997560;28;983;-57
2022/02/12 04:10:10;;;;;;;;;;;;;;;16.38;43.45;101499.16;4986635;28;830;-57
2022/02/12 04:12:35;;;;;;;;;;;;;;;16.38;43.27;101493.66;4981589;28;1080;-57
2022/02/12 04:15:01;;;;;;;;;;;;;;;16.45;42.48;101485.22;4980544;28;1910;-57
2022/02/12 04:17:26;;;;;;;;;;;;;;;16.43;43.62;101474.50;4980123;28;1318;-57
2022/02/12 04:19:52;;;;;;;;;;;;;;;16.83;42.66;101469.75;4979750;28;815;-56
2022/02/12 04:22:17;;;;;;;;;;;;;;;16.70;42.66;101473.69;4980752;28;918;-59
2022/02/12 04:24:43;;;;;;;;;;;;;;;16.45;42.93;101479.72;4983827;28;844;-58
2022/02/12 04:27:08;;;;;;;;;;;;;;;16.42;42.50;101493.97;4997887;28;854;-58
2022/02/12 04:29:33;;;;;;;;;;;;;;;16.58;43.74;101495.00;4982409;28;1221;-58
2022/02/12 04:31:59;;;;;;;;;;;;;;;17.30;41.25;101498.53;4979843;28;1238;-58
2022/02/12 04:34:24;;;;;;;;;;;;;;;16.91;42.26;101495.94;4984469;28;1911;-58
2022/02/12 04:36:50;;;;;;;;;;;;;;;16.76;42.47;101500.16;4979046;28;1245;-57
2022/02/12 04:39:16;;;;;;;;;;;;;;;16.49;42.08;101504.75;4979030;28;819;-58
2022/02/12 04:41:41;;;;;;;;;;;;;;;17.21;41.81;101503.69;4978898;28;944;-58
2022/02/12 04:44:07;;;;;;;;;;;;;;;17.09;41.94;101503.81;4980331;28;966;-58
2022/02/12 04:46:33;;;;;;;;;;;;;;;16.78;42.30;101513.63;4981108;28;835;-58
2022/02/12 04:48:58;;;;;;;;;;;;;;;17.47;41.18;101517.66;4984985;28;843;-58
2022/02/12 04:51:24;;;;;;;;;;;;;;;18.27;39.35;101516.88;4979127;28;791;-58
2022/02/12 04:53:51;;;;;;;;;;;;;;;18.19;39.55;101514.63;4978227;28;1977;-56
2022/02/12 04:56:16;;;;;;;;;;;;;;;17.71;40.24;101523.66;4983851;28;1225;-57
2022/02/12 04:58:42;;;;;;;;;;;;;;;17.54;40.64;101528.44;4994053;28;916;-57
2022/02/12 05:01:19;;;;;;;;;;;;;;;17.37;41.30;101526.63;4985454;28;786;-57
2022/02/12 05:03:49;;;;;;;;;;;;;;;17.23;41.53;101528.16;4977112;28;771;-57
2022/02/12 05:06:14;;;;;;;;;;;;;;;16.96;40.69;101533.63;4977069;28;815;-57
2022/02/12 05:08:40;;;;;;;;;;;;;;;16.86;42.62;101539.81;4978359;28;801;-58
2022/02/12 05:11:05;;;;;;;;;;;;;;;17.15;41.53;101537.69;4977816;28;743;-57
2022/02/12 05:13:31;;;;;;;;;;;;;;;17.03;41.61;101534.28;4986033;28;1967;-57
2022/02/12 05:15:56;;;;;;;;;;;;;;;16.82;42.38;101547.75;4978279;28;850;-61
2022/02/12 05:18:22;;;;;;;;;;;;;;;16.50;41.28;101544.88;4978210;28;784;-62
2022/02/12 05:20:48;;;;;;;;;;;;;;;16.53;42.21;101541.59;4978522;28;854;-61
2022/02/12 05:23:14;;;;;;;;;;;;;;;17.08;42.09;101546.16;4977975;28;814;-62
2022/02/12 05:25:40;;;;;;;;;;;;;;;17.45;40.98;101539.91;4983991;28;1062;-61
2022/02/12 05:28:05;;;;;;;;;;;;;;;17.53;41.05;101552.38;4981544;28;877;-61
2022/02/12 05:30:31;;;;;;;;;;;;;;;17.27;41.30;101559.53;4977723;28;850;-61
2022/02/12 05:32:58;;;;;;;;;;;;;;;17.04;41.97;101566.13;4977492;28;1335;-61
2022/02/12 05:35:23;;;;;;;;;;;;;;;17.95;39.81;101570.06;4978094;28;1906;-62
2022/02/12 05:37:49;;;;;;;;;;;;;;;18.26;39.03;101567.53;4979354;28;1141;-62
2022/02/12 05:40:14;;;;;;;;;;;;;;;17.79;40.05;101567.19;4977517;28;815;-62
2022/02/12 05:42:40;;;;;;;;;;;;;;;18.09;39.59;101568.53;4979629;28;854;-60
2022/02/12 05:45:05;;;;;;;;;;;;;;;18.34;38.88;101583.56;4977698;28;902;-60
2022/02/12 05:47:31;;;;;;;;;;;;;;;18.00;39.59;101583.84;4978108;28;782;-60
2022/02/12 05:49:56;;;;;;;;;;;;;;;17.85;39.71;101583.69;4978164;28;810;-60
2022/02/12 05:52:22;;;;;;;;;;;;;;;17.56;40.37;101595.03;4982704;28;807;-60
2022/02/12 05:54:47;;;;;;;;;;;;;;;17.22;40.91;101601.53;4977730;28;1918;-59
2022/02/12 05:57:13;;;;;;;;;;;;;;;17.10;40.42;101601.66;4977576;28;863;-61
2022/02/12 05:59:38;;;;;;;;;;;;;;;16.79;40.61;101610.56;4977155;28;826;-62
2022/02/12 06:02:03;;;;;;;;;;;;;;;16.80;40.92;101621.31;4977309;28;795;-61
2022/02/12 06:04:30;;;;;;;;;;;;;;;17.18;41.69;101622.38;4980037;28;786;-61
2022/02/12 06:06:55;;;;;;;;;;;;;;;18.23;39.48;101621.19;4977439;28;850;-62
2022/02/12 06:09:21;;;;;;;;;;;;;;;17.91;39.96;101626.72;4977536;28;899;-62
2022/02/12 06:11:46;;;;;;;;;;;;;;;17.44;40.71;101620.72;4978138;28;813;-61
2022/02/12 06:14:11;;;;;;;;;;;;;;;17.21;41.04;101632.03;4981970;28;1982;-61
2022/02/12 06:16:39;;;;;;;;;;;;;;;16.95;41.07;101634.44;4986401;28;819;-61
2022/02/12 06:19:04;;;;;;;;;;;;;;;16.79;41.34;101640.78;4981738;28;839;-61
2022/02/12 06:21:30;;;;;;;;;;;;;;;16.83;42.35;101647.44;4981188;28;794;-61
2022/02/12 06:23:55;;;;;;;;;;;;;;;16.90;42.30;101639.88;4981573;28;866;-61
2022/02/12 06:26:21;;;;;;;;;;;;;;;16.95;42.32;101659.19;4979680;28;871;-62
2022/02/12 06:28:46;;;;;;;;;;;;;;;16.91;42.15;101660.78;4985423;28;984;-61
2022/02/12 06:31:11;;;;;;;;;;;;;;;16.90;42.00;101664.59;4981455;28;972;-61
2022/02/12 06:33:37;;;;;;;;;;;;;;;16.99;41.94;101668.56;4980675;28;1910;-61
2022/02/12 06:36:04;;;;;;;;;;;;;;;17.02;42.00;101672.72;4981560;28;1081;-62
2022/02/12 06:38:29;;;;;;;;;;;;;;;17.26;41.25;101663.16;4981545;28;818;-61
2022/02/12 06:40:55;;;;;;;;;;;;;;;17.54;40.98;101665.94;4981653;28;858;-62
2022/02/12 06:43:20;;;;;;;;;;;;;;;17.82;40.11;101672.28;4986479;28;933;-62
2022/02/12 06:45:46;;;;;;;;;;;;;;;17.77;40.10;101671.13;4981489;28;826;-63
2022/02/12 06:48:11;;;;;;;;;;;;;;;17.89;39.84;101675.63;4981398;28;778;-63
2022/02/12 06:50:36;;;;;;;;;;;;;;;18.19;39.46;101685.28;4980827;28;961;-64
2022/02/12 06:53:02;;;;;;;;;;;;;;;18.26;39.04;101675.72;4981014;28;732;-63
2022/02/12 06:55:27;;;;;;;;;;;;;;;18.41;38.76;101694.31;4982690;28;1985;-64
2022/02/12 06:57:53;;;;;;;;;;;;;;;18.36;38.92;101685.16;4986272;28;982;-63
2022/02/12 07:00:19;;;;;;;;;;;;;;;18.36;38.76;101691.50;4981156;28;794;-62
2022/02/12 07:02:46;;;;;;;;;;;;;;;18.11;39.66;101692.13;4980993;28;835;-61
2022/02/12 07:05:12;;;;;;;;;;;;;;;17.91;39.64;101692.75;4980851;28;883;-61
2022/02/12 07:07:47;;;;;;;;;;;;;;;17.43;39.97;101689.72;4986046;28;898;-61
2022/02/12 07:10:12;;;;;;;;;;;;;;;17.17;39.81;101697.66;4993725;28;1057;-60
2022/02/12 07:12:38;;;;;;;;;;;;;;;16.84;40.09;101713.13;4999039;28;901;-61
2022/02/12 07:15:04;;;;;;;;;;;;;;;16.87;40.83;101704.38;4981272;28;1918;-63
2022/02/12 07:17:29;;;;;;;;;;;;;;;17.07;41.82;101703.84;4998935;28;823;-61
2022/02/12 07:19:55;;;;;;;;;;;;;;;17.30;41.68;101696.44;4992631;28;892;-63
2022/02/12 07:22:26;;;;;;;;;;;;;;;17.66;40.50;101705.13;4980510;28;1002;-61
2022/02/12 07:24:52;;;;;;;;;;;;;;;17.81;40.44;101718.22;4980496;28;720;-62
2022/02/12 07:27:17;;;;;;;;;;;;;;;17.95;40.02;101719.50;4980388;28;1185;-62
2022/02/12 07:29:43;;;;;;;;;;;;;;;18.09;39.61;101714.41;4981761;28;743;-62
2022/02/12 07:32:08;;;;;;;;;;;;;;;18.21;39.50;101718.91;4983126;28;1215;-63
2022/02/12 07:34:34;;;;;;;;;;;;;;;18.30;39.13;101715.41;4981924;28;1902;-61
2022/02/12 07:36:59;;;;;;;;;;;;;;;18.32;39.38;101723.41;4980156;28;837;-62
2022/02/12 07:39:27;;;;;;;;;;;;;;;18.30;39.06;101725.59;4980388;28;841;-60
2022/02/12 07:41:52;;;;;;;;;;;;;;;18.17;39.38;101718.56;4979869;28;818;-61
2022/02/12 07:44:18;;;;;;;;;;;;;;;17.77;40.45;101739.91;4989995;28;818;-61
2022/02/12 07:46:43;;;;;;;;;;;;;;;17.63;40.45;101738.66;4982361;28;890;-60
2022/02/12 07:49:09;;;;;;;;;;;;;;;17.41;40.48;101749.66;4980310;28;731;-61
2022/02/12 07:51:34;;;;;;;;;;;;;;;17.07;40.36;101753.31;4979660;28;878;-61
2022/02/12 07:54:00;;;;;;;;;;;;;;;16.74;40.47;101757.72;4979629;28;1898;-62
2022/02/12 07:56:27;;;;;;;;;;;;;;;16.65;39.70;101763.91;4980230;28;857;-61
2022/02/12 07:58:53;;;;;;;;;;;;;;;16.64;40.78;101760.34;4984111;28;826;-60
2022/02/12 08:01:18;;;;;;;;;;;;;;;17.18;42.58;101769.94;4981475;28;841;-61
2022/02/12 08:03:44;;;;;;;;;;;;;;;18.64;38.72;101774.91;4980016;28;809;-62
2022/02/12 08:07:27;;;;;;;;;;;;;;;18.33;39.29;101777.38;4979440;28;910;-61
2022/02/12 08:08:55;;;;;;;;;;;;;;;17.74;40.29;101780.84;4979902;28;1609;-62
2022/02/12 08:11:23;;;;;;;;;;;;;;;17.37;40.45;101782.31;4980627;28;798;-62
2022/02/12 08:13:50;;;;;;;;;;;;;;;16.96;40.16;101779.00;4988438;28;1902;-62
2022/02/12 08:16:16;;;;;;;;;;;;;;;16.71;39.67;101780.22;4998205;28;898;-62
2022/02/12 08:18:41;;;;;;;;;;;;;;;16.81;42.70;101784.22;4998811;28;782;-62
2022/02/12 08:21:07;;;;;;;;;;;;;;;18.52;39.12;101775.06;4997815;28;799;-61
2022/02/12 08:23:32;;;;;;;;;;;;;;;18.46;39.00;101776.13;4995265;28;795;-61
2022/02/12 08:25:58;;;;;;;;;;;;;;;17.78;40.72;101777.34;4979510;28;744;-61
2022/02/12 08:28:23;;;;;;;;;;;;;;;17.53;40.74;101796.25;4977559;28;963;-62
2022/02/12 08:30:48;;;;;;;;;;;;;;;17.17;40.51;101801.28;4979505;28;914;-60
2022/02/12 08:33:14;;;;;;;;;;;;;;;16.86;40.40;101815.34;4978922;28;991;-61
2022/02/12 08:35:40;;;;;;;;;;;;;;;16.71;41.27;101806.84;4978945;28;1902;-62
2022/02/12 08:38:06;;;;;;;;;;;;;;;16.88;42.39;101826.94;4978920;28;842;-60
2022/02/12 08:40:31;;;;;;;;;;;;;;;17.40;41.60;101825.81;4979074;28;838;-60
2022/02/12 08:42:57;;;;;;;;;;;;;;;17.60;41.08;101796.94;4984225;28;870;-61
2022/02/12 08:45:23;;;;;;;;;;;;;;;17.69;40.69;101825.63;4978864;28;747;-62
2022/02/12 08:47:49;;;;;;;;;;;;;;;17.83;40.54;101820.56;4978957;28;977;-61
2022/02/12 08:50:15;;;;;;;;;;;;;;;17.92;40.35;101834.75;4981967;28;854;-61
2022/02/12 08:52:40;;;;;;;;;;;;;;;18.05;39.76;101845.38;4978965;28;866;-61
2022/02/12 08:55:07;;;;;;;;;;;;;;;18.10;39.62;101863.84;4978495;28;1975;-62
2022/02/12 08:57:32;;;;;;;;;;;;;;;18.08;39.76;101869.63;4981331;28;897;-61
2022/02/12 08:59:58;;;;;;;;;;;;;;;18.09;39.80;101874.03;4979480;28;881;-62
2022/02/12 09:02:24;;;;;;;;;;;;;;;18.28;39.42;101877.25;4978676;28;870;-61
2022/02/12 09:04:49;;;;;;;;;;;;;;;18.28;39.14;101887.47;4978230;28;890;-61
2022/02/12 09:07:15;;;;;;;;;;;;;;;18.24;39.53;101897.31;4978815;28;930;-60
2022/02/12 09:09:42;;;;;;;;;;;;;;;18.21;39.47;101893.16;4978584;28;735;-61
2022/02/12 09:12:08;;;;;;;;;;;;;;;17.76;40.13;101885.97;4977996;28;821;-62
2022/02/12 09:14:34;;;;;;;;;;;;;;;17.53;40.46;101881.50;4982340;28;1981;-60
2022/02/12 09:16:59;;;;;;;;;;;;;;;17.11;41.22;101893.81;4978360;28;906;-60
2022/02/12 09:19:24;;;;;;;;;;;;;;;16.92;40.65;101883.06;4977918;28;891;-63
2022/02/12 09:21:50;;;;;;;;;;;;;;;16.92;40.66;101865.75;4978257;28;737;-62
2022/02/12 09:24:15;;;;;;;;;;;;;;;16.94;42.09;101869.06;4978784;28;800;-61
2022/02/12 09:26:41;;;;;;;;;;;;;;;17.38;41.52;101869.22;4980057;28;867;-61
2022/02/12 09:29:07;;;;;;;;;;;;;;;17.67;40.67;101876.47;4982092;28;980;-62
2022/02/12 09:31:33;;;;;;;;;;;;;;;17.79;40.45;101877.19;4977773;28;1456;-61
2022/02/12 09:33:58;;;;;;;;;;;;;;;17.88;40.25;101870.19;4977545;28;1926;-62
2022/02/12 09:36:24;;;;;;;;;;;;;;;17.95;39.87;101883.78;4978274;28;829;-62
2022/02/12 09:38:49;;;;;;;;;;;;;;;18.01;39.89;101885.50;4977839;28;838;-62
2022/02/12 09:41:15;;;;;;;;;;;;;;;18.09;39.58;101895.22;4980876;28;862;-62
2022/02/12 09:43:41;;;;;;;;;;;;;;;18.12;39.56;101901.03;4982867;28;858;-60
2022/02/12 09:46:06;;;;;;;;;;;;;;;18.16;39.43;101906.03;4978277;28;791;-61
2022/02/12 09:48:32;;;;;;;;;;;;;;;18.28;39.33;101881.94;4978340;28;814;-61
2022/02/12 09:50:58;;;;;;;;;;;;;;;18.36;39.03;101883.44;4977574;28;821;-62
2022/02/12 09:53:24;;;;;;;;;;;;;;;18.10;39.46;101892.22;4990199;28;878;-61
2022/02/12 09:55:49;;;;;;;;;;;;;;;17.66;40.25;101897.66;4977665;28;858;-60
2022/02/12 09:58:15;;;;;;;;;;;;;;;17.37;40.75;101916.22;4981005;28;838;-61
2022/02/12 10:00:41;;;;;;;;;;;;;;;17.26;40.31;101909.69;4977488;28;831;-63
2022/02/12 10:03:07;;;;;;;;;;;;;;;17.07;40.11;101928.38;4977585;28;843;-61
2022/02/12 10:05:32;;;;;;;;;;;;;;;16.80;40.03;101939.13;4979818;28;1210;-61
2022/02/12 10:08:01;;;;;;;;;;;;;;;16.67;40.68;101943.81;4977977;28;814;-60
2022/02/12 10:10:27;;;;;;;;;;;;;;;16.82;41.87;101948.78;4977402;28;880;-60
2022/02/12 10:12:53;;;;;;;;;;;;;;;17.10;42.17;101961.66;4978647;28;846;-60
2022/02/12 10:15:25;;;;;;;;;;;;;;;18.00;40.27;101979.31;4976193;28;1907;-61
2022/02/12 10:17:52;;;;;;;;;;;;;;;18.37;39.09;101975.94;4981355;28;844;-61
2022/02/12 10:20:43;;;;;;;;;;;;;;;17.95;40.08;101974.59;4979604;28;801;-62
2022/02/12 10:23:12;;;;;;;;;;;;;;;17.60;40.75;101967.44;4987826;28;1221;-62
2022/02/12 10:25:39;;;;;;;;;;;;;;;17.44;40.86;101978.19;4996127;28;759;-62
2022/02/12 10:28:05;;;;;;;;;;;;;;;17.05;41.75;101983.56;4994647;28;1102;-62
2022/02/12 10:30:30;;;;;;;;;;;;;;;17.01;41.50;101974.16;4979383;28;811;-63
2022/02/12 10:32:56;;;;;;;;;;;;;;;16.92;41.95;101975.63;4977342;28;1136;-62
2022/02/12 10:35:22;;;;;;;;;;;;;;;16.82;41.77;101972.69;4976342;28;1915;-62
2022/02/12 10:37:48;;;;;;;;;;;;;;;16.84;42.28;101995.22;4977172;28;819;-62
2022/02/12 10:40:14;;;;;;;;;;;;;;;17.03;42.08;101993.16;4977035;28;831;-61
2022/02/12 10:42:44;;;;;;;;;;;;;;;17.19;41.93;101997.00;4981088;28;944;-61
2022/02/12 10:45:11;;;;;;;;;;;;;;;17.18;41.77;101973.34;4982586;28;862;-61
2022/02/12 10:47:37;;;;;;;;;;;;;;;17.27;41.58;101991.09;4977272;28;858;-62
2022/02/12 10:50:03;;;;;;;;;;;;;;;17.39;41.67;102002.84;4977215;28;822;-62
2022/02/12 10:52:42;;;;;;;;;;;;;;;17.48;41.60;102005.19;4977331;28;906;-63
2022/02/12 10:55:07;;;;;;;;;;;;;;;17.60;41.26;102003.19;4990565;28;1974;-62
2022/02/12 10:57:38;;;;;;;;;;;;;;;17.50;41.89;102009.38;4983475;28;1020;-63
2022/02/12 11:00:07;;;;;;;;;;;;;;;17.62;41.76;102003.78;4976303;28;775;-62
2022/02/12 11:02:33;;;;;;;;;;;;;;;17.72;41.66;102019.59;4978347;28;890;-62
2022/02/12 11:04:58;;;;;;;;;;;;;;;17.75;41.86;102025.44;4978351;28;1096;-61
2022/02/12 11:07:24;;;;;;;;;;;;;;;17.78;42.04;102016.69;4980308;28;1321;-63
2022/02/12 11:09:49;;;;;;;;;;;;;;;17.84;41.96;102025.00;4983595;28;879;-63
2022/02/12 11:12:15;;;;;;;;;;;;;;;17.82;41.93;102027.19;4979297;28;916;-63
2022/02/12 11:14:43;;;;;;;;;;;;;;;17.84;41.86;102036.84;4980385;28;1919;-61
2022/02/12 11:17:12;;;;;;;;;;;;;;;18.03;41.34;102033.84;4980339;28;921;-63
2022/02/12 11:19:38;;;;;;;;;;;;;;;17.95;41.59;102032.38;4980471;28;1374;-61
2022/02/12 11:22:03;;;;;;;;;;;;;;;17.78;42.13;102046.94;4981505;28;803;-60
2022/02/12 11:24:36;;;;;;;;;;;;;;;17.59;42.29;102037.28;4980136;28;821;-61
2022/02/12 11:27:13;;;;;;;;;;;;;;;17.76;42.06;102035.34;4993306;28;839;-60
2022/02/12 11:29:43;;;;;;;;;;;;;;;17.70;41.96;102033.63;4980458;28;744;-59
2022/02/12 11:32:13;;;;;;;;;;;;;;;17.56;42.39;102037.78;4979952;28;1209;-60
2022/02/12 11:34:57;;;;;;;;;;;;;;;17.72;42.05;102045.19;4984640;28;1915;-61
2022/02/12 11:37:23;;;;;;;;;;;;;;;17.55;42.05;102042.44;4980212;28;791;-60
2022/02/12 11:40:14;;;;;;;;;;;;;;;17.57;42.28;102053.19;4979971;28;754;-60
2022/02/12 11:42:46;;;;;;;;;;;;;;;17.55;42.03;102053.44;4988450;28;1220;-60
2022/02/12 11:45:15;;;;;;;;;;;;;;;17.54;42.30;102051.75;4979973;28;835;-60
2022/02/12 11:48:01;;;;;;;;;;;;;;;17.55;42.21;102049.88;4980277;28;870;-60
2022/02/12 11:50:38;;;;;;;;;;;;;;;17.47;42.30;102055.78;4980068;28;1108;-59
2022/02/12 11:53:03;;;;;;;;;;;;;;;17.58;42.02;102060.34;4978445;28;1170;-60
2022/02/12 11:55:32;;;;;;;;;;;;;;;17.54;42.21;102049.00;4979700;28;1918;-61
2022/02/12 11:57:57;;;;;;;;;;;;;;;17.60;42.02;102063.72;4980585;28;918;-60
2022/02/12 12:00:32;;;;;;;;;;;;;;;17.44;42.14;102066.16;4983907;28;815;-59
2022/02/12 12:03:04;;;;;;;;;;;;;;;17.59;42.01;102065.59;4979247;28;806;-60
2022/02/12 12:05:30;;;;;;;;;;;;;;;17.55;41.57;102058.13;4992261;28;915;-60
2022/02/12 12:07:59;;;;;;;;;;;;;;;17.48;41.99;102066.53;4998196;28;1482;-60
2022/02/12 12:10:24;;;;;;;;;;;;;;;17.65;41.68;102065.72;4979048;28;835;-61
2022/02/12 12:12:50;;;;;;;;;;;;;;;17.62;41.39;102078.03;4985061;28;854;-60
2022/02/12 12:15:15;;;;;;;;;;;;;;;17.53;41.61;102076.75;4977968;28;1917;-60
2022/02/12 12:17:41;;;;;;;;;;;;;;;17.58;41.67;102077.69;4979442;28;808;-59
2022/02/12 12:20:07;;;;;;;;;;;;;;;17.43;42.04;102081.03;4979514;28;843;-60
2022/02/12 12:22:32;;;;;;;;;;;;;;;17.52;41.61;102092.44;4979322;28;851;-59
2022/02/12 12:24:58;;;;;;;;;;;;;;;17.51;41.69;102081.69;4980884;28;811;-59
2022/02/12 12:27:23;;;;;;;;;;;;;;;17.47;42.00;102091.53;4982693;28;897;-59
2022/02/12 12:32:34;;;;;;;;;;;;;;;17.36;41.86;102102.34;4997686;28;1412;-59
2022/02/12 12:35:07;;;;;;;;;;;;;;;17.49;41.70;102103.09;4995978;28;1971;-59
2022/02/12 12:37:52;;;;;;;;;;;;;;;17.39;42.00;102098.25;4996808;28;959;-61
2022/02/12 12:40:38;;;;;;;;;;;;;;;17.31;42.18;102099.50;4979222;28;803;-59
2022/02/12 12:43:04;;;;;;;;;;;;;;;17.34;41.98;102110.00;4980044;28;1822;-60
2022/02/12 12:45:29;;;;;;;;;;;;;;;17.31;42.04;102110.50;4979180;28;882;-60
2022/02/12 12:47:56;;;;;;;;;;;;;;;17.43;41.81;102114.03;4978916;28;848;-60
2022/02/12 12:50:22;;;;;;;;;;;;;;;17.28;41.86;102113.72;4980021;28;874;-59
2022/02/12 12:52:47;;;;;;;;;;;;;;;17.39;41.80;102121.09;4980368;28;890;-59
2022/02/12 12:55:14;;;;;;;;;;;;;;;17.24;42.09;102123.56;4978877;28;1919;-61
2022/02/12 12:57:41;;;;;;;;;;;;;;;17.32;41.81;102116.81;4978576;28;898;-62
2022/02/12 13:00:07;;;;;;;;;;;;;;;17.20;42.08;102125.13;4977036;28;913;-60